createdAt,value
2023-10-22T00:00:56.065Z,0.50
2023-10-22T00:03:22.829Z,0.52
2023-10-22T00:05:52.047Z,0.73
2023-10-22T00:08:20.941Z,0.60
2023-10-22T00:10:47.857Z,0.30
2023-10-22T00:13:14.394Z,0.40
2023-10-22T00:15:41.032Z,0.50
2023-10-22T00:18:09.920Z,0.60
2023-10-22T00:20:40.567Z,0.50
2023-10-22T00:23:09.576Z,1.15
2023-10-22T00:25:37.327Z,0.60
2023-10-22T00:28:04.703Z,0.90
2023-10-22T00:30:33.546Z,0.80
2023-10-22T00:33:00.194Z,1.10
2023-10-22T00:35:27.816Z,0.95
2023-10-22T00:37:54.606Z,0.47
2023-10-22T00:40:21.089Z,0.80
2023-10-22T00:42:50.117Z,0.98
2023-10-22T00:45:16.706Z,0.80
2023-10-22T00:47:43.422Z,0.75
2023-10-22T00:50:14.984Z,0.85
2023-10-22T00:52:42.125Z,1.05
2023-10-22T00:55:13.126Z,0.93
2023-10-22T00:57:42.553Z,0.63
2023-10-22T01:00:10.200Z,0.90
2023-10-22T01:02:39.384Z,0.52
2023-10-22T01:05:08.500Z,0.70
2023-10-22T01:07:37.905Z,0.63
2023-10-22T01:10:04.826Z,0.73
2023-10-22T01:12:35.935Z,0.80
2023-10-22T01:15:05.981Z,0.75
2023-10-22T01:17:32.775Z,0.52
2023-10-22T01:19:59.365Z,0.73
2023-10-22T01:22:25.935Z,0.90
2023-10-22T01:24:54.968Z,0.95
2023-10-22T01:27:21.494Z,0.82
2023-10-22T01:29:48.249Z,1.00
2023-10-22T01:32:17.365Z,0.75
2023-10-22T01:34:43.885Z,0.80
2023-10-22T01:37:10.550Z,0.70
2023-10-22T01:39:39.738Z,0.82
2023-10-22T01:42:06.291Z,0.80
2023-10-22T01:44:32.933Z,0.77
2023-10-22T01:46:59.699Z,0.90
2023-10-22T01:49:30.871Z,0.85
2023-10-22T01:51:57.584Z,0.80
2023-10-22T01:54:24.258Z,0.63
2023-10-22T01:56:53.485Z,1.25
2023-10-22T01:59:22.604Z,0.80
2023-10-22T02:01:51.464Z,0.70
2023-10-22T02:04:17.958Z,0.50
2023-10-22T02:06:44.483Z,0.70
2023-10-22T02:09:11.082Z,0.85
2023-10-22T02:11:37.881Z,0.77
2023-10-22T02:14:06.746Z,0.70
2023-10-22T02:16:33.323Z,0.80
2023-10-22T02:18:59.826Z,0.75
2023-10-22T02:21:27.821Z,0.80
2023-10-22T02:26:24.394Z,0.70
2023-10-22T02:28:53.277Z,0.85
2023-10-22T02:31:19.945Z,0.80
2023-10-22T02:33:46.647Z,0.60
2023-10-22T02:36:16.743Z,0.55
2023-10-22T02:38:45.682Z,0.57
2023-10-22T02:41:12.210Z,0.57
2023-10-22T02:43:38.724Z,0.60
2023-10-22T02:46:08.137Z,0.70
2023-10-22T02:48:34.855Z,0.93
2023-10-22T02:51:04.731Z,0.60
2023-10-22T02:53:33.944Z,0.82
2023-10-22T02:56:05.004Z,0.60
2023-10-22T02:58:33.887Z,0.55
2023-10-22T03:01:05.813Z,0.43
2023-10-22T03:03:33.187Z,0.65
2023-10-22T03:05:59.836Z,0.60
2023-10-22T03:08:28.998Z,0.30
2023-10-22T03:10:55.479Z,0.60
2023-10-22T03:13:22.263Z,0.50
2023-10-22T03:15:50.768Z,0.43
2023-10-22T03:18:17.416Z,0.40
2023-10-22T03:20:44.073Z,0.38
2023-10-22T03:23:10.771Z,0.40
2023-10-22T03:25:41.948Z,0.50
2023-10-22T03:28:10.810Z,0.30
2023-10-22T03:30:41.161Z,0.40
2023-10-22T03:33:07.859Z,0.40
2023-10-22T03:35:36.910Z,0.40
2023-10-22T03:38:04.247Z,0.25
2023-10-22T03:40:35.867Z,0.40
2023-10-22T03:43:02.331Z,0.40
2023-10-22T03:45:29.041Z,0.50
2023-10-22T03:47:55.689Z,0.50
2023-10-22T03:50:24.787Z,0.65
2023-10-22T03:52:53.887Z,1.27
2023-10-22T03:55:20.409Z,0.60
2023-10-22T03:57:49.406Z,0.70
2023-10-22T04:00:18.704Z,0.70
2023-10-22T04:02:47.612Z,0.60
2023-10-22T04:05:14.215Z,0.60
2023-10-22T04:07:40.716Z,0.95
2023-10-22T04:10:11.369Z,1.13
2023-10-22T04:12:38.031Z,1.30
2023-10-22T04:15:05.371Z,1.50
2023-10-22T04:17:32.099Z,1.60
2023-10-22T04:20:00.971Z,1.70
2023-10-22T04:22:30.524Z,1.50
2023-10-22T04:25:01.970Z,1.38
2023-10-22T04:27:32.226Z,1.90
2023-10-22T04:30:06.145Z,1.38
2023-10-22T04:32:38.312Z,1.40
2023-10-22T04:35:05.310Z,1.10
2023-10-22T04:37:32.083Z,1.10
2023-10-22T04:40:00.002Z,1.10
2023-10-22T04:42:28.440Z,1.55
2023-10-22T04:44:57.238Z,1.15
2023-10-22T04:47:26.325Z,1.02
2023-10-22T04:49:54.544Z,1.15
2023-10-22T04:52:31.861Z,1.20
2023-10-22T04:55:01.934Z,1.20
2023-10-22T04:57:31.602Z,1.20
2023-10-22T04:59:58.501Z,1.55
2023-10-22T05:02:25.306Z,1.75
2023-10-22T05:04:53.418Z,1.35
2023-10-22T05:09:53.587Z,1.60
2023-10-22T05:12:22.507Z,1.70
2023-10-22T05:14:49.070Z,1.98
2023-10-22T05:17:15.632Z,1.98
2023-10-22T05:19:44.668Z,1.88
2023-10-22T05:22:11.222Z,2.40
2023-10-22T05:24:37.968Z,1.90
2023-10-22T05:27:05.004Z,2.30
2023-10-22T05:29:31.571Z,2.17
2023-10-22T05:31:58.111Z,1.92
2023-10-22T05:34:24.656Z,2.10
2023-10-22T05:36:51.161Z,2.42
2023-10-22T05:39:17.783Z,2.30
2023-10-22T05:41:46.632Z,2.17
2023-10-22T05:44:15.637Z,2.30
2023-10-22T05:46:42.595Z,2.75
2023-10-22T05:49:14.686Z,2.40
2023-10-22T05:51:41.189Z,2.20
2023-10-22T05:54:08.551Z,2.00
2023-10-22T05:56:36.852Z,2.05
2023-10-22T05:59:09.704Z,2.10
2023-10-22T06:01:40.028Z,1.85
2023-10-22T06:04:07.939Z,2.00
2023-10-22T06:06:39.902Z,2.05
2023-10-22T06:09:09.101Z,2.20
2023-10-22T06:11:36.156Z,2.00
2023-10-22T06:14:04.141Z,2.00
2023-10-22T06:16:32.908Z,2.00
2023-10-22T06:19:00.073Z,1.83
2023-10-22T06:21:29.122Z,1.60
2023-10-22T06:23:55.747Z,1.90
2023-10-22T06:26:22.322Z,2.92
2023-10-22T06:28:49.297Z,2.00
2023-10-22T06:31:18.561Z,1.80
2023-10-22T06:33:45.307Z,1.80
2023-10-22T06:36:15.934Z,1.88
2023-10-22T06:38:44.100Z,1.73
2023-10-22T06:41:20.586Z,1.88
2023-10-22T06:43:48.285Z,2.00
2023-10-22T06:46:18.407Z,1.92
2023-10-22T06:48:48.861Z,2.40
2023-10-22T06:51:17.058Z,2.28
2023-10-22T06:53:45.715Z,2.25
2023-10-22T06:56:13.380Z,2.35
2023-10-22T06:58:42.981Z,2.13
2023-10-22T07:01:14.487Z,2.50
2023-10-22T07:03:45.642Z,2.70
2023-10-22T07:06:16.305Z,3.25
2023-10-22T07:08:46.634Z,3.10
2023-10-22T07:11:13.594Z,3.83
2023-10-22T07:13:40.887Z,4.15
2023-10-22T07:16:08.656Z,3.47
2023-10-22T07:18:35.355Z,4.25
2023-10-22T07:21:04.974Z,3.92
2023-10-22T07:23:33.176Z,4.57
2023-10-22T07:26:02.692Z,4.53
2023-10-22T07:28:31.808Z,4.65
2023-10-22T07:31:00.826Z,4.13
2023-10-22T07:33:28.638Z,4.10
2023-10-22T07:38:33.128Z,3.75
2023-10-22T07:40:59.859Z,3.65
2023-10-22T07:43:31.275Z,3.58
2023-10-22T07:46:05.772Z,3.53
2023-10-22T07:48:35.852Z,3.30
2023-10-22T07:51:12.186Z,3.42
2023-10-22T07:53:39.352Z,3.47
2023-10-22T07:56:09.593Z,3.13
2023-10-22T07:58:37.815Z,3.10
2023-10-22T08:01:05.636Z,2.47
2023-10-22T08:03:32.432Z,2.95
2023-10-22T08:06:00.315Z,2.97
2023-10-22T08:08:29.339Z,2.30
2023-10-22T08:11:03.919Z,2.60
2023-10-22T08:13:30.744Z,2.70
2023-10-22T08:15:57.841Z,3.08
2023-10-22T08:18:25.127Z,2.50
2023-10-22T08:20:51.868Z,2.37
2023-10-22T08:23:18.705Z,2.45
2023-10-22T08:25:54.193Z,2.15
2023-10-22T08:28:23.692Z,2.08
2023-10-22T08:30:51.037Z,1.90
2023-10-22T08:33:20.490Z,2.40
2023-10-22T08:35:47.177Z,2.42
2023-10-22T08:38:16.080Z,1.85
2023-10-22T08:40:42.979Z,2.00
2023-10-22T08:43:20.142Z,1.93
2023-10-22T08:45:52.571Z,1.93
2023-10-22T08:48:19.891Z,2.30
2023-10-22T08:50:49.536Z,2.30
2023-10-22T08:53:18.845Z,1.95
2023-10-22T08:55:47.534Z,1.90
2023-10-22T08:58:20.504Z,1.95
2023-10-22T09:00:53.354Z,2.10
2023-10-22T09:03:22.074Z,1.98
2023-10-22T09:05:49.436Z,2.33
2023-10-22T09:08:16.625Z,1.85
2023-10-22T09:10:48.422Z,2.10
2023-10-22T09:13:21.747Z,2.20
2023-10-22T09:15:52.357Z,1.70
2023-10-22T09:18:19.875Z,1.90
2023-10-22T09:20:47.840Z,2.08
2023-10-22T09:23:26.994Z,1.92
2023-10-22T09:25:57.282Z,1.90
2023-10-22T09:28:26.013Z,1.90
2023-10-22T09:31:05.769Z,1.63
2023-10-22T09:33:33.778Z,2.20
2023-10-22T09:36:05.278Z,1.75
2023-10-22T09:38:42.338Z,1.65
2023-10-22T09:41:12.386Z,1.77
2023-10-22T09:43:39.379Z,1.60
2023-10-22T09:46:09.017Z,1.40
2023-10-22T09:48:41.928Z,1.15
2023-10-22T09:51:14.605Z,1.40
2023-10-22T09:53:53.068Z,1.95
2023-10-22T09:56:26.551Z,1.40
2023-10-22T09:59:19.127Z,1.40
2023-10-22T10:01:46.293Z,1.42
2023-10-22T10:04:15.357Z,1.40
2023-10-22T10:06:47.560Z,1.33
2023-10-22T10:09:17.477Z,2.08
2023-10-22T10:11:48.310Z,1.60
2023-10-22T10:14:37.991Z,1.48
2023-10-22T10:17:07.964Z,1.60
2023-10-22T10:19:34.576Z,1.40
2023-10-22T10:22:01.226Z,1.50
2023-10-22T10:24:31.618Z,1.95
2023-10-22T10:26:58.428Z,1.90
2023-10-22T10:29:30.976Z,2.00
2023-10-22T10:32:20.767Z,1.67
2023-10-22T10:35:00.870Z,2.00
2023-10-22T10:37:32.322Z,1.33
2023-10-22T10:40:01.448Z,1.52
2023-10-22T10:42:31.075Z,1.45
2023-10-22T10:45:03.103Z,1.42
2023-10-22T10:47:41.132Z,1.20
2023-10-22T10:50:08.480Z,1.63
2023-10-22T10:52:43.876Z,1.27
2023-10-22T10:55:17.594Z,1.08
2023-10-22T10:57:54.329Z,1.20
2023-10-22T11:00:28.456Z,1.23
2023-10-22T11:03:07.535Z,1.23
2023-10-22T11:05:41.401Z,1.00
2023-10-22T11:08:21.952Z,1.15
2023-10-22T11:10:48.555Z,1.08
2023-10-22T11:13:26.154Z,1.15
2023-10-22T11:18:22.627Z,1.10
2023-10-22T11:23:29.713Z,0.88
2023-10-22T11:25:57.493Z,1.17
2023-10-22T11:28:24.948Z,0.88
2023-10-22T11:30:51.523Z,1.10
2023-10-22T11:33:34.541Z,0.85
2023-10-22T11:36:16.820Z,1.05
2023-10-22T11:38:43.409Z,0.90
2023-10-22T11:41:09.960Z,1.20
2023-10-22T11:43:44.597Z,1.00
2023-10-22T11:46:16.220Z,0.75
2023-10-22T11:48:45.766Z,0.88
2023-10-22T11:51:12.316Z,1.05
2023-10-22T11:53:42.594Z,0.80
2023-10-22T11:56:11.429Z,0.77
2023-10-22T11:58:44.443Z,0.75
2023-10-22T12:01:12.166Z,0.90
2023-10-22T12:03:38.731Z,0.80
2023-10-22T12:06:10.069Z,0.80
2023-10-22T12:08:36.862Z,0.73
2023-10-22T12:11:05.663Z,0.68
2023-10-22T12:13:34.472Z,0.70
2023-10-22T12:16:01.326Z,0.70
2023-10-22T12:18:30.325Z,0.90
2023-10-22T12:20:57.384Z,0.73
2023-10-22T12:23:26.242Z,1.02
2023-10-22T12:25:52.872Z,0.70
2023-10-22T12:28:19.581Z,0.57
2023-10-22T12:30:48.424Z,0.47
2023-10-22T12:33:17.263Z,0.70
2023-10-22T12:35:43.894Z,0.63
2023-10-22T12:38:15.355Z,0.80
2023-10-22T12:40:41.892Z,0.80
2023-10-22T12:43:08.437Z,0.52
2023-10-22T12:45:39.664Z,0.93
2023-10-22T12:48:06.416Z,0.80
2023-10-22T12:50:35.535Z,0.52
2023-10-22T12:53:02.060Z,0.60
2023-10-22T12:55:33.370Z,0.50
2023-10-22T12:58:00.043Z,0.55
2023-10-22T13:00:26.600Z,0.43
2023-10-22T13:02:53.409Z,0.70
2023-10-22T13:05:22.321Z,0.60
2023-10-22T13:07:48.912Z,0.65
2023-10-22T13:10:15.467Z,0.60
2023-10-22T13:12:58.040Z,0.50
2023-10-22T13:15:28.897Z,0.50
2023-10-22T13:17:57.960Z,0.60
2023-10-22T13:20:29.430Z,0.57
2023-10-22T13:22:55.900Z,0.70
2023-10-22T13:25:22.476Z,0.70
2023-10-22T13:27:49.047Z,0.90
2023-10-22T13:30:18.061Z,0.55
2023-10-22T13:32:46.905Z,0.88
2023-10-22T13:35:18.256Z,0.60
2023-10-22T13:37:44.765Z,0.70
2023-10-22T13:40:14.081Z,0.75
2023-10-22T13:42:43.172Z,0.63
2023-10-22T13:45:10.646Z,0.70
2023-10-22T13:47:39.690Z,0.75
2023-10-22T13:50:10.209Z,0.70
2023-10-22T13:52:39.432Z,0.50
2023-10-22T13:55:06.225Z,0.80
2023-10-22T13:57:32.931Z,0.63
2023-10-22T14:00:01.733Z,0.60
2023-10-22T14:02:32.935Z,1.23
2023-10-22T14:05:01.808Z,0.82
2023-10-22T14:07:30.665Z,0.90
2023-10-22T14:09:57.185Z,0.60
2023-10-22T14:12:23.812Z,0.85
2023-10-22T14:14:53.912Z,0.80
2023-10-22T14:17:22.996Z,0.70
2023-10-22T14:19:53.387Z,0.70
2023-10-22T14:22:20.151Z,0.65
2023-10-22T14:24:55.615Z,0.80
2023-10-22T14:27:23.917Z,0.80
2023-10-22T14:29:51.674Z,0.70
2023-10-22T14:32:21.731Z,0.73
2023-10-22T14:34:57.313Z,0.70
2023-10-22T14:37:26.649Z,1.00
2023-10-22T14:39:55.384Z,0.70
2023-10-22T14:42:21.954Z,0.50
2023-10-22T14:44:53.087Z,0.82
2023-10-22T14:47:22.267Z,0.68
2023-10-22T14:49:51.376Z,1.35
2023-10-22T14:52:17.973Z,0.60
2023-10-22T14:54:44.518Z,0.70
2023-10-22T14:57:13.590Z,0.70
2023-10-22T14:59:42.307Z,0.80
2023-10-22T15:02:10.156Z,0.95
2023-10-22T15:07:11.346Z,0.80
2023-10-22T15:09:45.744Z,0.60
2023-10-22T15:12:12.321Z,0.80
2023-10-22T15:14:38.864Z,1.13
2023-10-22T15:17:07.857Z,0.90
2023-10-22T15:19:36.887Z,0.90
2023-10-22T15:22:03.721Z,0.70
2023-10-22T15:24:30.361Z,0.90
2023-10-22T15:26:59.126Z,0.80
2023-10-22T15:29:33.699Z,0.70
2023-10-22T15:32:04.158Z,0.88
2023-10-22T15:34:33.226Z,1.20
2023-10-22T15:37:02.054Z,0.80
2023-10-22T15:39:33.868Z,1.02
2023-10-22T15:42:01.083Z,0.90
2023-10-22T15:44:27.610Z,0.80
2023-10-22T15:46:57.953Z,0.60
2023-10-22T15:49:24.528Z,0.57
2023-10-22T15:51:53.571Z,0.85
2023-10-22T15:54:24.935Z,0.88
2023-10-22T15:56:53.921Z,0.85
2023-10-22T15:59:22.907Z,0.80
2023-10-22T16:01:49.436Z,1.05
2023-10-22T16:04:18.333Z,1.00
2023-10-22T16:06:47.228Z,0.60
2023-10-22T16:09:13.804Z,1.05
2023-10-22T16:11:40.403Z,0.80
2023-10-22T16:14:09.438Z,0.90
2023-10-22T16:16:38.388Z,0.88
2023-10-22T16:19:07.365Z,1.30
2023-10-22T16:21:36.485Z,0.73
2023-10-22T16:24:06.853Z,1.00
2023-10-22T16:26:33.400Z,1.10
2023-10-22T16:29:02.305Z,0.88
2023-10-22T16:31:29.581Z,0.90
2023-10-22T16:33:58.282Z,0.80
2023-10-22T16:36:24.834Z,0.80
2023-10-22T16:38:53.777Z,1.15
2023-10-22T16:41:20.820Z,0.88
2023-10-22T16:43:51.876Z,0.80
2023-10-22T16:46:20.875Z,0.80
2023-10-22T16:48:53.233Z,0.90
2023-10-22T16:51:20.602Z,0.90
2023-10-22T16:53:47.835Z,0.98
2023-10-22T16:56:15.822Z,0.80
2023-10-22T17:01:13.944Z,0.90
2023-10-22T17:03:41.246Z,0.88
2023-10-22T17:06:08.306Z,0.90
2023-10-22T17:08:34.921Z,0.90
2023-10-22T17:11:01.469Z,1.08
2023-10-22T17:13:27.975Z,1.13
2023-10-22T17:15:54.558Z,1.10
2023-10-22T17:18:21.334Z,1.08
2023-10-22T17:20:50.154Z,0.90
2023-10-22T17:23:17.106Z,1.08
2023-10-22T17:25:49.712Z,1.00
2023-10-22T17:28:17.694Z,1.30
2023-10-22T17:33:16.563Z,1.02
2023-10-22T17:35:43.184Z,1.20
2023-10-22T17:38:09.714Z,1.05
2023-10-22T17:40:41.914Z,1.63
2023-10-22T17:43:10.818Z,1.10
2023-10-22T17:45:43.055Z,1.60
2023-10-22T17:48:09.973Z,1.63
2023-10-22T17:50:36.598Z,2.20
2023-10-22T17:53:15.598Z,1.60
2023-10-22T17:56:02.803Z,1.98
2023-10-22T17:58:35.272Z,2.78
2023-10-22T18:01:01.904Z,2.67
2023-10-22T18:03:28.762Z,2.80
2023-10-22T18:06:05.214Z,1.50
2023-10-22T18:08:34.891Z,1.20
2023-10-22T18:11:04.573Z,1.50
2023-10-22T18:13:32.340Z,1.10
2023-10-22T18:15:59.322Z,1.33
2023-10-22T18:18:26.184Z,1.25
2023-10-22T18:21:00.969Z,1.10
2023-10-22T18:23:27.467Z,1.73
2023-10-22T18:26:05.205Z,1.50
2023-10-22T18:28:37.577Z,1.33
2023-10-22T18:31:08.595Z,1.48
2023-10-22T18:33:38.183Z,1.42
2023-10-22T18:36:05.964Z,1.48
2023-10-22T18:38:36.157Z,1.60
2023-10-22T18:41:14.672Z,1.60
2023-10-22T18:43:44.082Z,2.72
2023-10-22T18:46:14.907Z,20.63
2023-10-22T18:48:45.825Z,24.38
2023-10-22T18:51:16.071Z,18.58
2023-10-22T18:53:45.278Z,12.23
2023-10-22T18:56:14.304Z,16.60
2023-10-22T18:58:41.403Z,9.77
2023-10-22T19:01:28.054Z,4.07
2023-10-22T19:03:59.063Z,2.58
2023-10-22T19:06:32.277Z,2.40
2023-10-22T19:09:02.180Z,2.35
2023-10-22T19:11:30.401Z,2.00
2023-10-22T19:13:57.624Z,2.28
2023-10-22T19:16:25.685Z,2.42
2023-10-22T19:18:55.657Z,2.20
2023-10-22T19:21:22.566Z,2.08
2023-10-22T19:23:51.436Z,2.20
2023-10-22T19:26:26.882Z,2.08
2023-10-22T19:28:53.385Z,2.33
2023-10-22T19:31:20.562Z,2.30
2023-10-22T19:33:49.685Z,2.78
2023-10-22T19:36:20.126Z,2.33
2023-10-22T19:38:49.080Z,2.38
2023-10-22T19:41:24.931Z,2.10
2023-10-22T19:43:56.273Z,2.58
2023-10-22T19:46:25.541Z,2.15
2023-10-22T19:48:54.754Z,3.08
2023-10-22T19:51:21.317Z,2.25
2023-10-22T19:53:47.892Z,2.50
2023-10-22T19:56:18.781Z,2.50
2023-10-22T19:58:45.806Z,2.45
2023-10-22T20:01:23.400Z,2.20
2023-10-22T20:03:54.045Z,2.00
2023-10-22T20:06:23.411Z,2.13
2023-10-22T20:08:53.680Z,2.20
2023-10-22T20:11:23.901Z,2.95
2023-10-22T20:13:53.998Z,4.25
2023-10-22T20:16:23.021Z,5.05
2023-10-22T20:18:53.288Z,3.10
2023-10-22T20:21:21.133Z,3.35
2023-10-22T20:23:48.340Z,3.33
2023-10-22T20:26:15.125Z,3.15
2023-10-22T20:28:45.962Z,2.38
2023-10-22T20:31:17.737Z,2.50
2023-10-22T20:33:46.673Z,2.70
2023-10-22T20:36:15.584Z,2.80
2023-10-22T20:38:42.419Z,2.90
2023-10-22T20:41:11.602Z,3.00
2023-10-22T20:43:38.250Z,2.97
2023-10-22T20:46:08.544Z,2.95
2023-10-22T20:48:36.920Z,2.78
2023-10-22T20:51:10.477Z,3.72
2023-10-22T20:53:38.182Z,2.30
2023-10-22T20:56:08.967Z,2.47
2023-10-22T20:58:36.740Z,1.75
2023-10-22T21:01:08.625Z,2.30
2023-10-22T21:03:37.796Z,2.10
2023-10-22T21:06:04.616Z,2.17
2023-10-22T21:08:33.760Z,2.40
2023-10-22T21:11:00.399Z,1.90
2023-10-22T21:13:29.042Z,2.15
2023-10-22T21:15:55.613Z,1.90
2023-10-22T21:18:24.742Z,2.40
2023-10-22T21:20:56.054Z,2.30
2023-10-22T21:23:25.067Z,2.40
2023-10-22T21:25:54.252Z,2.03
2023-10-22T21:28:21.210Z,2.50
2023-10-22T21:30:48.766Z,2.13
2023-10-22T21:33:24.616Z,1.98
2023-10-22T21:36:04.566Z,2.00
2023-10-22T21:38:31.307Z,2.17
2023-10-22T21:40:58.192Z,2.17
2023-10-22T21:43:25.097Z,2.28
2023-10-22T21:45:51.973Z,2.40
2023-10-22T21:48:21.103Z,2.40
2023-10-22T21:50:47.736Z,2.20
2023-10-22T21:53:14.263Z,2.22
2023-10-22T21:55:40.742Z,2.10
2023-10-22T21:58:12.114Z,2.30
2023-10-22T22:00:39.018Z,2.15
2023-10-22T22:03:06.053Z,2.60
2023-10-22T22:05:35.281Z,2.70
2023-10-22T22:08:04.288Z,2.20
2023-10-22T22:10:30.831Z,2.53
2023-10-22T22:13:00.265Z,2.50
2023-10-22T22:15:26.855Z,2.78
2023-10-22T22:17:56.189Z,2.70
2023-10-22T22:20:24.942Z,2.53
2023-10-22T22:22:56.152Z,2.85
2023-10-22T22:25:29.927Z,2.30
2023-10-22T22:28:07.963Z,2.72
2023-10-22T22:30:37.018Z,2.72
2023-10-22T22:33:06.321Z,2.60
2023-10-22T22:35:35.342Z,2.83
2023-10-22T22:38:04.244Z,3.15
2023-10-22T22:40:33.436Z,2.60
2023-10-22T22:42:59.985Z,2.30
2023-10-22T22:45:26.830Z,2.90
2023-10-22T22:47:53.468Z,2.65
2023-10-22T22:50:20.287Z,2.97
2023-10-22T22:52:46.942Z,3.25
2023-10-22T22:55:15.958Z,3.17
2023-10-22T22:57:42.478Z,2.70
2023-10-22T23:00:10.820Z,2.90
2023-10-22T23:02:40.577Z,3.53
2023-10-22T23:05:10.128Z,2.38
2023-10-22T23:07:39.761Z,3.00
2023-10-22T23:10:08.689Z,3.20
2023-10-22T23:12:35.576Z,3.08
2023-10-22T23:15:04.667Z,2.45
2023-10-22T23:17:33.629Z,2.80
2023-10-22T23:20:02.708Z,2.40
2023-10-22T23:22:29.223Z,2.38
2023-10-22T23:24:55.836Z,2.40
2023-10-22T23:27:22.408Z,2.25
2023-10-22T23:29:49.133Z,2.90
2023-10-22T23:32:15.742Z,2.50
2023-10-22T23:34:42.468Z,2.30
2023-10-22T23:37:09.211Z,1.88
2023-10-22T23:39:38.071Z,2.20
2023-10-22T23:42:04.760Z,2.70
2023-10-22T23:44:31.292Z,2.17
2023-10-22T23:47:02.615Z,2.83
2023-10-22T23:49:31.663Z,2.22
2023-10-22T23:51:58.234Z,2.60
2023-10-22T23:54:24.809Z,2.70
2023-10-22T23:56:51.406Z,2.15
2023-10-22T23:59:18.495Z,1.85
